Time;durP1;ratioP1;P1;durP2;ratioP2;P2;SDS_P1;SDS_P2;PMS_P1;PMS_P2;Temp;Humidity;BMP_temperature;BMP_pressure;BME280_temperature;BME280_humidity;BME280_pressure;Samples;Min_cycle;Max_cycle;Signal;HPM_P1;HPM_P2
2021/08/25 00:02:21;;;;;;;2.13;1.92;;;23.10;57.70;;;;;;5063544;28;20079;-35
2021/08/25 00:04:47;;;;;;;2.00;1.80;;;23.10;57.80;;;;;;5082305;28;20028;-36
2021/08/25 00:07:14;;;;;;;2.17;2.00;;;23.10;57.70;;;;;;5067034;28;20025;-35
2021/08/25 00:09:41;;;;;;;2.05;1.90;;;23.10;58.20;;;;;;5066073;28;20060;-36
2021/08/25 00:12:08;;;;;;;2.28;2.10;;;23.10;57.80;;;;;;5084979;28;20035;-35
2021/08/25 00:14:37;;;;;;;;;;;23.10;58.00;;;;;;5080092;28;20032;-35
2021/08/25 00:17:04;;;;;;;2.45;2.25;;;23.00;58.70;;;;;;5066325;28;19909;-36
2021/08/25 00:19:30;;;;;;;2.10;1.90;;;23.00;58.40;;;;;;5065951;28;20037;-35
2021/08/25 00:21:57;;;;;;;2.65;1.92;;;23.00;58.60;;;;;;5066017;28;20053;-35
2021/08/25 00:24:23;;;;;;;2.30;2.10;;;23.00;58.60;;;;;;5066068;28;20100;-35
2021/08/25 00:26:50;;;;;;;5.45;2.15;;;22.90;58.70;;;;;;5065863;28;20037;-35
2021/08/25 00:29:16;;;;;;;2.38;1.98;;;22.90;58.80;;;;;;5065737;28;20021;-36
2021/08/25 00:31:43;;;;;;;3.20;2.08;;;22.90;58.60;;;;;;5057427;28;20028;-36
2021/08/25 00:34:10;;;;;;;7.03;2.63;;;22.90;58.20;;;;;;5085580;28;20039;-36
2021/08/25 00:36:36;;;;;;;3.67;2.28;;;22.90;59.50;;;;;;5067615;28;20044;-36
2021/08/25 00:39:03;;;;;;;3.50;2.17;;;22.90;59.10;;;;;;5084664;28;20104;-36
2021/08/25 00:41:30;;;;;;;2.63;2.10;;;22.80;58.70;;;;;;5083082;28;20364;-36
2021/08/25 00:43:57;;;;;;;2.38;2.17;;;22.80;58.40;;;;;;5085949;28;20039;-36
2021/08/25 00:46:24;;;;;;;2.35;2.15;;;22.80;58.60;;;;;;5071294;28;20124;-35
2021/08/25 00:48:51;;;;;;;2.67;2.17;;;22.80;58.30;;;;;;5072656;28;20109;-35
2021/08/25 00:51:18;;;;;;;2.30;2.10;;;22.80;58.40;;;;;;5052091;28;20021;-36
2021/08/25 00:53:45;;;;;;;1.88;1.77;;;22.80;58.40;;;;;;5077455;28;20826;-36
2021/08/25 00:56:11;;;;;;;1.83;1.70;;;22.80;58.10;;;;;;5077914;28;20036;-36
2021/08/25 00:58:41;;;;;;;2.28;2.08;;;22.70;58.20;;;;;;5075984;28;20506;-36
2021/08/25 01:01:34;;;;;;;3.15;2.22;;;22.70;58.80;;;;;;5065295;28;20119;-36
2021/08/25 01:04:03;;;;;;;2.33;1.85;;;22.70;58.30;;;;;;5046360;28;21384;-36
2021/08/25 01:06:30;;;;;;;2.10;1.90;;;22.70;58.50;;;;;;5063460;28;20040;-36
2021/08/25 01:09:03;;;;;;;1.73;1.63;;;22.70;58.60;;;;;;5063022;28;20032;-36
2021/08/25 01:11:32;;;;;;;2.40;1.80;;;22.70;58.40;;;;;;5075657;28;20166;-35
2021/08/25 01:13:59;;;;;;;2.20;2.00;;;22.70;58.60;;;;;;5081748;28;20024;-35
2021/08/25 01:16:25;;;;;;;2.42;2.22;;;22.60;58.50;;;;;;5080026;28;20068;-35
2021/08/25 01:18:54;;;;;;;2.40;2.22;;;22.60;58.70;;;;;;5063999;28;20826;-36
2021/08/25 01:21:20;;;;;;;2.30;2.10;;;22.50;58.60;;;;;;5064294;28;20055;-36
2021/08/25 01:23:47;;;;;;;2.05;1.95;;;22.50;58.40;;;;;;5047070;28;20024;-36
2021/08/25 01:26:16;;;;;;;2.20;2.00;;;22.50;58.60;;;;;;5048480;28;20075;-35
2021/08/25 01:28:52;;;;;;;2.80;2.25;;;22.50;58.50;;;;;;5076869;28;20095;-37
2021/08/25 01:31:20;;;;;;;3.05;2.00;;;22.50;58.20;;;;;;5062054;28;20497;-35
2021/08/25 01:33:47;;;;;;;2.50;2.30;;;22.50;58.50;;;;;;5078857;28;20029;-36
2021/08/25 01:36:17;;;;;;;2.13;1.95;;;22.40;58.50;;;;;;5078803;28;20033;-36
2021/08/25 01:38:57;;;;;;;2.10;1.90;;;22.40;58.60;;;;;;5081862;28;20098;-36
2021/08/25 01:41:24;;;;;;;2.70;2.50;;;22.40;58.50;;;;;;5078853;28;20024;-35
2021/08/25 01:43:58;;;;;;;2.30;2.10;;;22.40;58.70;;;;;;5052935;28;20425;-36
2021/08/25 01:46:31;;;;;;;2.85;2.58;;;22.40;58.70;;;;;;5074927;28;20024;-35
2021/08/25 01:48:58;;;;;;;2.08;1.92;;;22.30;58.90;;;;;;5071466;28;20028;-35
2021/08/25 01:51:28;;;;;;;2.47;2.28;;;22.30;59.00;;;;;;5060748;28;20042;-35
2021/08/25 01:53:56;;;;;;;2.33;1.95;;;22.30;59.00;;;;;;5081694;28;20052;-35
2021/08/25 01:56:22;;;;;;;2.08;1.98;;;22.30;58.90;;;;;;5074527;28;20040;-35
2021/08/25 01:58:49;;;;;;;2.13;1.92;;;22.20;59.10;;;;;;5055219;28;20033;-35
2021/08/25 02:01:16;;;;;;;1.98;1.88;;;22.20;59.10;;;;;;5074135;28;20028;-35
2021/08/25 02:03:43;;;;;;;2.50;2.30;;;22.20;58.90;;;;;;5074142;28;20021;-35
2021/08/25 02:06:09;;;;;;;2.20;2.10;;;22.20;59.00;;;;;;5081614;28;20059;-35
2021/08/25 02:08:36;;;;;;;4.15;2.33;;;22.20;58.70;;;;;;5059114;28;20033;-35
2021/08/25 02:11:03;;;;;;;2.50;2.30;;;22.10;59.00;;;;;;5075779;28;20033;-35
2021/08/25 02:13:29;;;;;;;2.08;1.90;;;22.10;59.00;;;;;;5075857;28;20054;-35
2021/08/25 02:15:56;;;;;;;2.55;2.35;;;22.10;59.00;;;;;;5077799;28;20048;-35
2021/08/25 02:18:22;;;;;;;2.60;2.03;;;22.00;58.90;;;;;;5081778;28;20129;-36
2021/08/25 02:20:49;;;;;;;2.38;2.17;;;22.00;59.10;;;;;;5077496;28;20285;-35
2021/08/25 02:23:15;;;;;;;2.40;2.20;;;22.00;59.10;;;;;;5079866;28;20033;-35
2021/08/25 02:25:44;;;;;;;2.55;2.25;;;22.00;59.50;;;;;;5063043;28;20056;-35
2021/08/25 02:28:10;;;;;;;2.58;2.33;;;22.00;59.40;;;;;;5080766;28;20035;-35
2021/08/25 02:30:37;;;;;;;2.67;2.47;;;22.00;59.50;;;;;;5075856;28;20044;-36
2021/08/25 02:33:03;;;;;;;2.58;2.20;;;21.90;59.90;;;;;;5069522;28;20031;-35
2021/08/25 02:35:30;;;;;;;2.47;2.27;;;21.90;59.50;;;;;;5070071;28;20051;-35
2021/08/25 02:37:56;;;;;;;2.50;2.30;;;21.90;59.60;;;;;;5072564;28;20025;-35
2021/08/25 02:40:22;;;;;;;2.35;2.15;;;21.90;59.30;;;;;;5073364;28;20087;-35
2021/08/25 02:42:48;;;;;;;3.60;2.25;;;21.80;59.30;;;;;;5071697;28;20437;-35
2021/08/25 02:45:14;;;;;;;2.28;2.08;;;21.80;59.20;;;;;;5078190;28;20047;-35
2021/08/25 02:47:40;;;;;;;2.83;2.63;;;21.80;59.00;;;;;;5080551;28;20119;-35
2021/08/25 02:50:07;;;;;;;2.60;2.28;;;21.80;59.00;;;;;;5069759;28;20039;-35
2021/08/25 02:52:34;;;;;;;2.42;2.22;;;21.80;59.20;;;;;;5074305;28;20064;-35
2021/08/25 02:55:01;;;;;;;3.40;2.10;;;21.80;59.00;;;;;;5072905;28;20782;-35
2021/08/25 02:57:27;;;;;;;2.35;2.15;;;21.70;58.90;;;;;;5075922;28;20512;-35
2021/08/25 02:59:53;;;;;;;2.55;2.35;;;21.70;59.00;;;;;;5068423;28;20035;-35
2021/08/25 03:02:20;;;;;;;2.30;2.10;;;21.70;59.30;;;;;;5064147;28;20025;-36
2021/08/25 03:04:46;;;;;;;2.40;2.17;;;21.70;59.30;;;;;;5075806;28;20029;-35
2021/08/25 03:07:12;;;;;;;2.25;2.05;;;21.60;59.10;;;;;;5067345;28;20021;-35
2021/08/25 03:09:38;;;;;;;1.90;1.80;;;21.60;59.80;;;;;;5078943;28;20036;-35
2021/08/25 03:12:04;;;;;;;2.67;2.38;;;21.60;59.40;;;;;;5076392;28;20029;-36
2021/08/25 03:14:31;;;;;;;2.57;2.37;;;21.60;59.40;;;;;;5074962;28;20036;-35
2021/08/25 03:16:57;;;;;;;2.35;2.15;;;21.50;59.80;;;;;;5075529;28;20878;-35
2021/08/25 03:19:23;;;;;;;2.42;2.22;;;21.50;59.40;;;;;;5067324;28;20031;-35
2021/08/25 03:21:49;;;;;;;2.30;2.10;;;21.50;59.50;;;;;;5075672;28;20571;-35
2021/08/25 03:24:16;;;;;;;2.42;2.22;;;21.50;59.30;;;;;;5080330;28;20036;-36
2021/08/25 03:26:42;;;;;;;1.83;1.73;;;21.50;59.20;;;;;;5071340;28;20032;-36
2021/08/25 03:29:08;;;;;;;2.70;2.50;;;21.40;59.50;;;;;;5077911;28;20032;-35
2021/08/25 03:31:34;;;;;;;2.38;2.17;;;21.40;59.30;;;;;;5082284;28;20025;-35
2021/08/25 03:34:00;;;;;;;2.55;2.35;;;21.40;59.10;;;;;;5079794;28;20048;-37
2021/08/25 03:36:27;;;;;;;2.45;2.25;;;21.40;59.10;;;;;;5074531;28;20056;-36
2021/08/25 03:38:53;;;;;;;2.38;2.17;;;21.30;59.10;;;;;;5081569;28;20025;-35
2021/08/25 03:41:19;;;;;;;2.50;2.30;;;21.30;59.10;;;;;;5080968;28;20047;-35
2021/08/25 03:43:45;;;;;;;2.85;2.65;;;21.30;59.10;;;;;;5081922;28;20033;-35
2021/08/25 03:46:13;;;;;;;2.85;2.42;;;21.30;59.30;;;;;;5082460;28;20533;-35
2021/08/25 03:48:39;;;;;;;2.70;2.50;;;21.20;59.20;;;;;;5080355;28;20063;-35
2021/08/25 03:51:05;;;;;;;2.90;2.60;;;21.20;59.30;;;;;;5082264;28;20044;-35
2021/08/25 03:53:31;;;;;;;2.80;2.60;;;21.20;59.50;;;;;;5080216;28;20588;-35
2021/08/25 03:55:58;;;;;;;2.80;2.60;;;21.20;59.70;;;;;;5071746;28;20044;-35
2021/08/25 03:58:24;;;;;;;2.50;2.30;;;21.20;59.60;;;;;;5065309;28;20021;-36
2021/08/25 04:00:52;;;;;;;2.17;2.00;;;21.10;59.50;;;;;;5062331;28;20041;-35
2021/08/25 04:03:19;;;;;;;2.50;2.30;;;21.10;59.60;;;;;;5062247;28;20052;-35
2021/08/25 04:05:45;;;;;;;2.50;2.30;;;21.10;59.30;;;;;;5078408;28;20557;-35
2021/08/25 04:08:11;;;;;;;2.45;2.25;;;21.10;59.30;;;;;;5082146;28;20028;-35
2021/08/25 04:10:40;;;;;;;2.70;2.40;;;21.10;59.40;;;;;;5082310;28;20044;-35
2021/08/25 04:13:06;;;;;;;2.40;2.20;;;21.00;59.20;;;;;;5064413;28;20090;-36
2021/08/25 04:15:33;;;;;;;2.80;2.60;;;21.00;59.40;;;;;;5064489;28;20028;-35
2021/08/25 04:17:59;;;;;;;2.45;2.25;;;21.00;59.10;;;;;;5081963;28;20396;-36
2021/08/25 04:20:25;;;;;;;2.65;2.45;;;21.00;59.40;;;;;;5064886;28;20025;-35
2021/08/25 04:22:51;;;;;;;2.90;2.70;;;20.90;59.30;;;;;;5062282;28;20060;-35
2021/08/25 04:25:17;;;;;;;2.65;2.45;;;20.90;59.20;;;;;;5062119;28;20028;-35
2021/08/25 04:27:43;;;;;;;2.58;2.38;;;20.90;59.50;;;;;;5061958;28;20025;-35
2021/08/25 04:30:10;;;;;;;2.60;2.40;;;20.80;59.70;;;;;;5076459;28;20036;-35
2021/08/25 04:32:36;;;;;;;2.97;2.65;;;20.80;59.70;;;;;;5081678;28;20035;-35
2021/08/25 04:35:03;;;;;;;2.42;2.22;;;20.80;59.90;;;;;;5082016;28;20100;-35
2021/08/25 04:37:29;;;;;;;2.50;2.30;;;20.80;59.90;;;;;;5081624;28;20055;-35
2021/08/25 04:39:55;;;;;;;2.50;2.30;;;20.80;60.10;;;;;;5081798;28;20258;-35
2021/08/25 04:42:21;;;;;;;2.50;2.30;;;20.80;59.70;;;;;;5081250;28;20584;-35
2021/08/25 04:44:47;;;;;;;2.45;2.25;;;20.70;59.50;;;;;;5081990;28;20028;-35
2021/08/25 04:47:14;;;;;;;2.42;2.22;;;20.80;59.80;;;;;;5073342;28;20196;-35
2021/08/25 04:49:40;;;;;;;2.40;2.20;;;20.70;59.70;;;;;;5061769;28;20029;-35
2021/08/25 04:52:06;;;;;;;2.20;2.00;;;20.70;59.60;;;;;;5063212;28;20029;-36
2021/08/25 04:54:33;;;;;;;2.60;2.40;;;20.60;59.40;;;;;;5084340;28;20035;-35
2021/08/25 04:56:59;;;;;;;2.50;2.20;;;20.60;59.60;;;;;;5085436;28;20032;-35
2021/08/25 04:59:25;;;;;;;2.70;2.50;;;20.60;59.40;;;;;;5085616;28;20088;-35
2021/08/25 05:01:51;;;;;;;2.30;2.10;;;20.60;59.60;;;;;;5085271;28;20040;-35
2021/08/25 05:04:17;;;;;;;2.28;2.08;;;20.60;59.50;;;;;;5080938;28;20033;-35
2021/08/25 05:06:43;;;;;;;2.75;2.55;;;20.60;60.00;;;;;;5065299;28;20032;-35
2021/08/25 05:09:09;;;;;;;2.53;2.33;;;20.50;59.80;;;;;;5065414;28;20480;-35
2021/08/25 05:11:36;;;;;;;2.25;2.08;;;20.50;59.80;;;;;;5065135;28;20033;-35
2021/08/25 05:14:02;;;;;;;2.50;2.30;;;20.50;59.90;;;;;;5065435;28;20811;-35
2021/08/25 05:16:28;;;;;;;3.20;2.53;;;20.50;60.20;;;;;;5074564;28;20058;-35
2021/08/25 05:18:54;;;;;;;2.33;2.13;;;20.50;59.80;;;;;;5075043;28;20028;-35
2021/08/25 05:21:20;;;;;;;2.53;2.33;;;20.40;59.60;;;;;;5085068;28;20562;-35
2021/08/25 05:23:46;;;;;;;2.30;2.10;;;20.40;59.70;;;;;;5085177;28;20107;-35
2021/08/25 05:26:13;;;;;;;2.28;2.08;;;20.40;59.60;;;;;;5072703;28;20053;-35
2021/08/25 05:28:39;;;;;;;2.38;2.17;;;20.40;59.70;;;;;;5085069;28;20025;-35
2021/08/25 05:31:05;;;;;;;2.42;2.20;;;20.30;59.60;;;;;;5084497;28;20037;-35
2021/08/25 05:33:31;;;;;;;2.67;2.47;;;20.30;59.60;;;;;;5064791;28;20033;-35
2021/08/25 05:36:00;;;;;;;2.70;2.50;;;20.30;60.00;;;;;;5082227;28;20350;-35
2021/08/25 05:38:27;;;;;;;2.70;2.50;;;20.30;60.80;;;;;;5084984;28;20039;-36
2021/08/25 05:40:53;;;;;;;2.78;2.58;;;20.30;61.80;;;;;;5084817;28;20025;-35
2021/08/25 05:43:19;;;;;;;2.60;2.40;;;20.30;61.60;;;;;;5085128;28;20028;-35
2021/08/25 05:45:45;;;;;;;3.00;2.70;;;20.30;62.30;;;;;;5085031;28;20034;-35
2021/08/25 05:48:11;;;;;;;2.60;2.40;;;20.40;62.40;;;;;;5084426;28;20035;-35
2021/08/25 05:50:38;;;;;;;2.65;2.45;;;20.40;62.40;;;;;;5084893;28;20031;-36
2021/08/25 05:53:04;;;;;;;2.65;2.45;;;20.50;62.40;;;;;;5084696;28;20047;-36
2021/08/25 05:55:30;;;;;;;2.70;2.50;;;20.50;62.20;;;;;;5084663;28;20037;-35
2021/08/25 05:57:56;;;;;;;2.95;2.63;;;20.50;62.00;;;;;;5081191;28;20028;-35
2021/08/25 06:00:22;;;;;;;2.78;2.58;;;20.50;61.90;;;;;;5083444;28;20050;-35
2021/08/25 06:02:49;;;;;;;2.70;2.50;;;20.50;61.80;;;;;;5083704;28;20024;-36
2021/08/25 06:05:15;;;;;;;2.67;2.47;;;20.50;62.00;;;;;;5083684;28;20040;-35
2021/08/25 06:07:41;;;;;;;3.00;2.70;;;20.50;62.10;;;;;;5084295;28;20032;-35
2021/08/25 06:10:08;;;;;;;3.10;2.80;;;20.60;62.40;;;;;;5084675;28;20078;-36
2021/08/25 06:12:34;;;;;;;2.78;2.58;;;20.60;62.50;;;;;;5084272;28;20021;-35
2021/08/25 06:15:00;;;;;;;2.78;2.58;;;20.60;62.40;;;;;;5084483;28;20063;-36
2021/08/25 06:17:26;;;;;;;3.10;2.80;;;20.60;62.30;;;;;;5073753;28;20041;-35
2021/08/25 06:19:53;;;;;;;2.80;2.60;;;20.60;62.40;;;;;;5066994;28;20028;-35
2021/08/25 06:22:19;;;;;;;3.35;3.05;;;20.60;62.50;;;;;;5080391;28;20033;-35
2021/08/25 06:24:45;;;;;;;2.90;2.70;;;20.70;62.70;;;;;;5083861;28;20037;-35
2021/08/25 06:27:11;;;;;;;2.67;2.47;;;20.70;62.40;;;;;;5084205;28;20028;-35
2021/08/25 06:29:37;;;;;;;3.20;2.90;;;20.70;62.30;;;;;;5084420;28;20047;-35
2021/08/25 06:32:04;;;;;;;3.50;2.70;;;20.70;62.40;;;;;;5083501;28;20056;-35
2021/08/25 06:34:30;;;;;;;2.92;2.70;;;20.70;62.50;;;;;;5083976;28;20062;-36
2021/08/25 06:36:56;;;;;;;3.97;2.90;;;20.80;62.30;;;;;;5082128;28;20044;-35
2021/08/25 06:39:23;;;;;;;3.03;2.83;;;20.80;62.10;;;;;;5081885;28;20836;-35
2021/08/25 06:41:49;;;;;;;3.20;2.75;;;20.80;62.00;;;;;;5066747;28;20025;-35
2021/08/25 06:44:15;;;;;;;2.78;2.58;;;20.80;62.20;;;;;;5063990;28;20032;-35
2021/08/25 06:46:41;;;;;;;3.40;3.10;;;20.90;62.20;;;;;;5064759;28;20028;-35
2021/08/25 06:49:07;;;;;;;3.25;2.95;;;20.90;62.10;;;;;;5083811;28;20036;-36
2021/08/25 06:51:33;;;;;;;3.13;2.90;;;20.90;62.00;;;;;;5083564;28;20057;-35
2021/08/25 06:54:00;;;;;;;3.55;3.25;;;20.90;62.00;;;;;;5083386;28;20822;-35
2021/08/25 06:56:26;;;;;;;3.10;2.83;;;20.90;62.10;;;;;;5083538;28;20044;-35
2021/08/25 06:58:52;;;;;;;3.47;3.17;;;20.90;62.10;;;;;;5083227;28;20782;-35
2021/08/25 07:01:20;;;;;;;3.25;2.90;;;20.90;62.00;;;;;;5083251;28;20032;-35
2021/08/25 07:03:46;;;;;;;3.40;3.10;;;21.00;62.20;;;;;;5083546;28;20558;-36
2021/08/25 07:06:12;;;;;;;3.60;3.30;;;21.00;62.30;;;;;;5067838;28;20098;-35
2021/08/25 07:08:38;;;;;;;5.70;3.28;;;21.00;62.20;;;;;;5083549;28;20028;-35
2021/08/25 07:11:04;;;;;;;3.50;3.20;;;21.00;62.40;;;;;;5081167;28;20135;-35
2021/08/25 07:13:30;;;;;;;3.53;3.22;;;21.10;62.50;;;;;;5070088;28;20043;-35
2021/08/25 07:15:57;;;;;;;3.47;3.17;;;21.10;62.30;;;;;;5077262;28;20032;-35
2021/08/25 07:18:23;;;;;;;3.65;3.35;;;21.10;62.30;;;;;;5082552;28;20131;-36
2021/08/25 07:20:49;;;;;;;3.47;3.17;;;21.10;62.20;;;;;;5083402;28;20024;-36
2021/08/25 07:23:15;;;;;;;3.40;3.10;;;21.10;62.10;;;;;;5082708;28;20090;-35
2021/08/25 07:25:42;;;;;;;3.53;3.22;;;21.10;62.10;;;;;;5082843;28;20540;-35
2021/08/25 07:28:08;;;;;;;3.35;3.05;;;21.10;61.90;;;;;;5082791;28;20024;-35
2021/08/25 07:30:35;;;;;;;3.40;3.13;;;21.10;62.00;;;;;;5083150;28;20087;-35
2021/08/25 07:33:01;;;;;;;3.55;3.25;;;21.20;62.00;;;;;;5064520;28;20039;-35
2021/08/25 07:35:29;;;;;;;3.60;3.30;;;21.20;61.90;;;;;;5051085;28;20033;-35
2021/08/25 07:37:58;;;;;;;3.38;3.08;;;21.20;61.90;;;;;;5062945;28;20059;-36
2021/08/25 07:40:25;;;;;;;3.42;3.13;;;21.20;61.90;;;;;;5072053;28;20033;-35
2021/08/25 07:42:51;;;;;;;2.63;2.42;;;21.20;62.00;;;;;;5082979;28;20462;-35
2021/08/25 07:45:17;;;;;;;3.75;3.45;;;21.20;62.20;;;;;;5082841;28;20086;-35
2021/08/25 07:47:45;;;;;;;4.00;3.70;;;21.20;62.20;;;;;;5081106;28;20102;-35
2021/08/25 07:50:11;;;;;;;3.65;3.35;;;21.30;62.30;;;;;;5082893;28;20029;-35
2021/08/25 07:52:38;;;;;;;4.38;3.72;;;21.30;62.30;;;;;;5059113;28;20065;-35
2021/08/25 07:55:04;;;;;;;3.95;3.65;;;21.30;62.40;;;;;;5044617;28;20037;-35
2021/08/25 07:57:30;;;;;;;3.95;3.63;;;21.30;62.30;;;;;;5078919;28;20164;-35
2021/08/25 07:59:56;;;;;;;4.35;3.20;;;21.30;62.30;;;;;;5082695;28;20066;-35
2021/08/25 08:02:23;;;;;;;4.05;3.67;;;21.30;62.20;;;;;;5070816;28;20132;-35
2021/08/25 08:04:49;;;;;;;3.97;3.67;;;21.40;62.20;;;;;;5062223;28;20037;-36
2021/08/25 08:07:15;;;;;;;3.92;3.58;;;21.40;62.10;;;;;;5062729;28;20040;-35
2021/08/25 08:09:42;;;;;;;3.70;3.40;;;21.40;62.00;;;;;;5065642;28;20088;-36
2021/08/25 08:12:08;;;;;;;3.88;3.58;;;21.40;62.00;;;;;;5082429;28;20035;-35
2021/08/25 08:14:34;;;;;;;4.13;3.72;;;21.40;62.00;;;;;;5082252;28;20025;-35
2021/08/25 08:17:03;;;;;;;3.90;3.60;;;21.40;62.00;;;;;;5078971;28;20048;-35
2021/08/25 08:19:30;;;;;;;3.70;3.30;;;21.40;61.90;;;;;;5082468;28;20226;-36
2021/08/25 08:21:57;;;;;;;4.13;3.72;;;21.40;61.90;;;;;;5082492;28;20039;-36
2021/08/25 08:24:24;;;;;;;3.90;3.60;;;21.40;62.00;;;;;;5080750;28;20078;-35
2021/08/25 08:26:50;;;;;;;3.75;3.45;;;21.50;62.20;;;;;;5083545;28;20094;-35
2021/08/25 08:29:16;;;;;;;4.75;3.70;;;21.50;62.20;;;;;;5086093;28;20058;-36
2021/08/25 08:31:42;;;;;;;4.32;3.70;;;21.50;62.30;;;;;;5085930;28;20123;-36
2021/08/25 08:34:08;;;;;;;3.72;3.42;;;21.50;62.30;;;;;;5082845;28;20035;-36
2021/08/25 08:36:34;;;;;;;3.55;3.25;;;21.50;62.30;;;;;;5065870;28;20048;-36
2021/08/25 08:39:00;;;;;;;4.40;4.00;;;21.50;62.40;;;;;;5065947;28;20021;-36
2021/08/25 08:41:27;;;;;;;4.18;3.78;;;21.50;62.40;;;;;;5083164;28;20033;-36
2021/08/25 08:43:53;;;;;;;4.40;4.00;;;21.50;62.30;;;;;;5073848;28;20013;-35
2021/08/25 08:46:20;;;;;;;5.03;4.05;;;21.50;62.20;;;;;;5085751;28;20031;-35
2021/08/25 08:48:47;;;;;;;;;;;21.60;62.20;;;;;;5086336;28;20032;-35
2021/08/25 08:51:17;;;;;;;3.60;3.30;;;21.60;62.20;;;;;;5085733;28;19905;-35
2021/08/25 08:53:43;;;;;;;4.30;3.90;;;21.60;62.10;;;;;;5085231;28;20162;-35
2021/08/25 08:56:09;;;;;;;3.75;3.35;;;21.60;62.10;;;;;;5085154;28;20052;-35
2021/08/25 08:58:41;;;;;;;4.47;4.03;;;21.60;62.00;;;;;;5085679;28;20476;-35
2021/08/25 09:01:07;;;;;;;4.00;3.70;;;21.60;62.10;;;;;;5085427;28;20095;-36
2021/08/25 09:03:40;;;;;;;4.20;3.80;;;21.60;62.10;;;;;;5085244;28;20028;-35
2021/08/25 09:06:06;;;;;;;4.28;3.92;;;21.60;62.30;;;;;;5066958;28;20031;-35
2021/08/25 09:08:34;;;;;;;4.00;3.70;;;21.60;62.40;;;;;;5085010;28;20047;-35
2021/08/25 09:11:06;;;;;;;4.85;4.45;;;21.60;62.40;;;;;;5084790;28;20043;-35
2021/08/25 09:13:53;;;;;;;3.95;3.65;;;21.70;62.60;;;;;;5085311;28;20032;-36
2021/08/25 09:16:35;;;;;;;4.28;3.92;;;21.60;62.50;;;;;;5084341;28;20048;-35
2021/08/25 09:19:09;;;;;;;4.43;4.03;;;21.70;62.60;;;;;;5084338;28;20028;-36
2021/08/25 09:21:39;;;;;;;4.43;4.03;;;21.70;62.50;;;;;;5064994;28;20033;-35
2021/08/25 09:24:05;;;;;;;4.35;3.95;;;21.70;62.40;;;;;;5083524;28;20138;-38
2021/08/25 09:26:33;;;;;;;2.90;2.70;;;21.70;62.40;;;;;;5082896;28;20036;-36
2021/08/25 09:29:18;;;;;;;4.57;4.10;;;21.70;63.00;;;;;;5085038;28;20036;-36
2021/08/25 09:31:45;;;;;;;4.15;3.85;;;21.70;62.40;;;;;;5077874;28;20047;-36
2021/08/25 09:34:28;;;;;;;4.43;4.03;;;21.70;62.40;;;;;;5068247;28;20053;-36
2021/08/25 09:37:07;;;;;;;4.30;3.90;;;21.70;62.30;;;;;;5084467;28;20079;-36
2021/08/25 09:39:33;;;;;;;4.13;3.72;;;21.70;62.30;;;;;;5082680;28;20397;-35
2021/08/25 09:42:00;;;;;;;4.63;4.20;;;21.80;62.50;;;;;;5082850;28;20044;-36
2021/08/25 09:44:26;;;;;;;4.32;4.00;;;21.70;63.20;;;;;;5084274;28;20033;-36
2021/08/25 09:46:52;;;;;;;4.20;3.83;;;21.70;62.60;;;;;;5066731;28;20036;-35
2021/08/25 09:49:18;;;;;;;4.72;4.20;;;21.70;62.60;;;;;;5084622;28;20092;-36
2021/08/25 09:51:44;;;;;;;4.43;4.03;;;21.70;62.60;;;;;;5084410;28;20028;-35
2021/08/25 09:54:12;;;;;;;4.72;4.32;;;21.80;62.80;;;;;;5083706;28;20063;-35
2021/08/25 09:56:39;;;;;;;4.50;4.10;;;21.70;62.90;;;;;;5084086;28;20170;-36
2021/08/25 09:59:12;;;;;;;5.07;4.57;;;21.80;63.00;;;;;;5084522;28;20027;-35
2021/08/25 10:01:39;;;;;;;4.65;4.25;;;21.80;62.80;;;;;;5081680;28;20020;-35
2021/08/25 10:04:06;;;;;;;4.50;4.10;;;21.80;62.80;;;;;;5084185;28;20107;-36
2021/08/25 10:06:33;;;;;;;4.43;4.03;;;21.80;62.70;;;;;;5084118;28;20020;-36
2021/08/25 10:08:59;;;;;;;4.35;3.95;;;21.80;62.60;;;;;;5066135;28;20036;-36
2021/08/25 10:11:29;;;;;;;4.82;4.43;;;21.80;62.70;;;;;;5066294;28;20055;-35
2021/08/25 10:13:56;;;;;;;4.07;3.78;;;21.80;62.60;;;;;;5046227;28;20033;-35
2021/08/25 10:16:42;;;;;;;4.60;4.20;;;21.80;62.60;;;;;;5063684;28;20033;-35
2021/08/25 10:19:29;;;;;;;4.43;4.03;;;21.80;62.60;;;;;;5067636;28;20068;-35
2021/08/25 10:22:24;;;;;;;4.28;3.95;;;21.80;62.60;;;;;;5083739;28;20024;-36
2021/08/25 10:25:05;;;;;;;5.13;4.72;;;21.80;62.60;;;;;;5080892;28;20036;-36
2021/08/25 10:27:33;;;;;;;4.68;4.28;;;21.80;62.70;;;;;;5083659;28;20118;-36
2021/08/25 10:30:02;;;;;;;4.80;4.35;;;21.90;62.90;;;;;;5083704;28;20055;-36
2021/08/25 10:32:32;;;;;;;4.72;4.32;;;21.80;62.70;;;;;;5082495;28;20080;-36
2021/08/25 10:35:20;;;;;;;4.70;4.30;;;21.90;62.80;;;;;;5073286;28;20032;-36
2021/08/25 10:37:47;;;;;;;4.55;4.15;;;21.90;63.00;;;;;;5083417;28;20037;-36
2021/08/25 10:40:15;;;;;;;6.45;4.30;;;21.90;63.00;;;;;;5060839;28;20021;-36
2021/08/25 10:42:48;;;;;;;4.80;4.40;;;21.90;63.00;;;;;;5083348;28;20477;-36
2021/08/25 10:45:15;;;;;;;4.85;4.40;;;21.90;63.00;;;;;;5081942;28;20082;-35
2021/08/25 10:47:58;;;;;;;5.05;4.65;;;21.90;63.00;;;;;;5065624;28;20362;-36
2021/08/25 10:51:03;;;;;;;4.85;4.45;;;21.90;63.00;;;;;;5082129;28;20024;-35
2021/08/25 10:53:29;;;;;;;4.53;4.13;;;21.90;63.00;;;;;;5020492;28;20065;-36
2021/08/25 10:56:12;;;;;;;4.53;4.10;;;21.90;63.00;;;;;;5020461;28;20581;-35
2021/08/25 10:59:04;;;;;;;5.30;4.80;;;21.90;62.90;;;;;;5020688;28;20036;-35
2021/08/25 11:01:39;;;;;;;4.57;4.05;;;21.90;63.00;;;;;;5020569;28;20054;-36
2021/08/25 11:04:07;;;;;;;5.07;4.68;;;21.90;63.00;;;;;;5020611;28;20041;-36
2021/08/25 11:06:41;;;;;;;4.60;4.20;;;21.90;62.90;;;;;;5019960;28;20503;-36
2021/08/25 11:09:27;;;;;;;4.38;3.97;;;21.90;63.00;;;;;;5020386;28;20034;-36
2021/08/25 11:12:14;;;;;;;4.70;4.30;;;21.90;62.90;;;;;;5019702;28;20184;-37
2021/08/25 11:14:45;;;;;;;4.78;4.18;;;21.90;63.00;;;;;;5001707;28;20189;-35
2021/08/25 11:17:13;;;;;;;8.13;4.22;;;22.00;63.20;;;;;;5018385;28;20050;-36
2021/08/25 11:19:45;;;;;;;5.10;4.60;;;22.00;63.20;;;;;;5008069;28;20052;-36
2021/08/25 11:22:19;;;;;;;4.72;4.32;;;22.00;63.00;;;;;;5019465;28;20048;-36
2021/08/25 11:24:50;;;;;;;4.65;4.25;;;22.00;63.10;;;;;;5057023;28;20371;-36
2021/08/25 11:27:24;;;;;;;4.70;4.30;;;22.00;63.20;;;;;;5082463;28;20039;-36
2021/08/25 11:30:18;;;;;;;4.90;4.50;;;22.00;63.30;;;;;;5081987;28;20028;-36
2021/08/25 11:32:55;;;;;;;5.45;4.32;;;22.00;63.20;;;;;;5082568;28;20040;-35
2021/08/25 11:35:31;;;;;;;5.38;4.53;;;22.00;63.30;;;;;;5069442;28;20037;-36
2021/08/25 11:38:02;;;;;;;4.95;4.45;;;22.00;63.20;;;;;;5062374;28;20029;-36
2021/08/25 11:40:29;;;;;;;4.80;4.30;;;22.00;63.20;;;;;;5068076;28;20039;-36
2021/08/25 11:42:55;;;;;;;;;;;22.00;63.30;;;;;;5079275;28;20031;-36
2021/08/25 11:45:22;;;;;;;5.80;4.32;;;22.00;63.20;;;;;;5062554;28;19908;-36
2021/08/25 11:47:53;;;;;;;4.68;4.28;;;22.00;63.10;;;;;;5061961;28;20032;-36
2021/08/25 11:50:20;;;;;;;4.72;4.32;;;22.00;63.20;;;;;;5062465;28;20115;-36
2021/08/25 11:52:46;;;;;;;5.32;4.80;;;22.00;63.40;;;;;;5062189;28;20049;-36
2021/08/25 11:55:13;;;;;;;5.55;5.05;;;22.00;63.60;;;;;;5062345;28;20489;-36
2021/08/25 11:57:48;;;;;;;5.10;4.60;;;22.00;63.60;;;;;;5062193;28;20036;-36
2021/08/25 12:00:19;;;;;;;6.20;5.28;;;22.00;63.70;;;;;;5063058;28;20025;-36
2021/08/25 12:03:02;;;;;;;5.47;4.97;;;22.00;63.80;;;;;;5051368;28;20033;-36
2021/08/25 12:05:33;;;;;;;6.82;4.65;;;22.00;63.80;;;;;;5068813;28;20029;-36
2021/08/25 12:08:12;;;;;;;5.20;4.70;;;22.10;63.90;;;;;;5081131;28;20017;-35
2021/08/25 12:10:39;;;;;;;5.47;4.53;;;22.10;63.90;;;;;;5088977;28;20035;-36
2021/08/25 12:13:06;;;;;;;4.70;4.30;;;22.10;63.80;;;;;;5066064;28;20104;-35
2021/08/25 12:15:51;;;;;;;5.40;4.90;;;22.10;63.80;;;;;;5068827;28;20101;-36
2021/08/25 12:18:20;;;;;;;5.25;4.75;;;22.10;63.80;;;;;;5068678;28;20028;-35
2021/08/25 12:20:48;;;;;;;5.18;4.68;;;22.10;63.90;;;;;;5068735;28;20111;-35
2021/08/25 12:23:15;;;;;;;5.50;5.00;;;22.10;63.80;;;;;;5054371;28;20033;-36
2021/08/25 12:25:46;;;;;;;6.40;4.85;;;22.10;63.80;;;;;;5088732;28;20091;-36
2021/08/25 12:28:15;;;;;;;5.57;5.07;;;22.10;63.80;;;;;;5088684;28;20028;-36
2021/08/25 12:30:42;;;;;;;5.13;4.63;;;22.10;63.80;;;;;;5088238;28;20036;-36
2021/08/25 12:33:10;;;;;;;4.50;4.10;;;22.10;63.80;;;;;;5088963;28;20016;-36
2021/08/25 12:35:37;;;;;;;4.85;4.45;;;22.10;63.80;;;;;;5088683;28;20037;-35
2021/08/25 12:38:04;;;;;;;4.90;4.47;;;22.20;63.80;;;;;;5088419;28;20564;-35
2021/08/25 12:40:30;;;;;;;5.57;5.10;;;22.20;63.80;;;;;;5088672;28;20051;-35
2021/08/25 12:42:57;;;;;;;5.43;4.93;;;22.10;63.80;;;;;;5088797;28;20135;-35
2021/08/25 12:45:24;;;;;;;4.75;4.28;;;22.10;63.80;;;;;;5070501;28;20043;-35
2021/08/25 12:47:50;;;;;;;5.43;4.65;;;22.20;63.80;;;;;;5088624;28;20032;-37
2021/08/25 12:50:18;;;;;;;6.90;5.03;;;22.20;63.80;;;;;;5088855;28;20035;-36
2021/08/25 12:52:44;;;;;;;5.28;4.80;;;22.20;63.80;;;;;;5088391;28;20084;-36
2021/08/25 12:55:11;;;;;;;5.10;4.60;;;22.20;63.80;;;;;;5088474;28;20048;-35